Time;durP1;ratioP1;P1;durP2;ratioP2;P2;SDS_P1;SDS_P2;PMS_P1;PMS_P2;Temp;Humidity;BMP_temperature;BMP_pressure;BME280_temperature;BME280_humidity;BME280_pressure;Samples;Min_cycle;Max_cycle;Signal;HPM_P1;HPM_P2
2022/08/05 00:00:15;;;;;;;4.57;1.45;;;18.50;77.60;;;;;;5095717;28;20093;-67
2022/08/05 00:02:43;;;;;;;10.45;1.48;;;18.40;77.50;;;;;;5109436;28;20051;-67
2022/08/05 00:05:20;;;;;;;6.40;1.55;;;18.40;77.90;;;;;;5108789;28;20040;-68
2022/08/05 00:08:08;;;;;;;6.47;1.88;;;18.40;78.10;;;;;;5109292;28;20093;-67
2022/08/05 00:10:56;;;;;;;6.32;1.33;;;18.40;78.30;;;;;;5110363;28;20080;-67
2022/08/05 00:13:27;;;;;;;5.95;1.35;;;18.30;78.20;;;;;;5109274;28;20637;-68
2022/08/05 00:16:06;;;;;;;3.47;1.23;;;18.30;78.30;;;;;;5105511;28;20050;-68
2022/08/05 00:18:37;;;;;;;2.85;1.20;;;18.30;78.50;;;;;;5109653;28;20040;-68
2022/08/05 00:21:05;;;;;;;4.68;1.27;;;18.20;79.30;;;;;;5106007;28;20487;-68
2022/08/05 00:23:32;;;;;;;4.90;1.58;;;18.20;79.00;;;;;;5112210;28;20044;-67
2022/08/05 00:26:19;;;;;;;9.55;1.95;;;18.20;79.00;;;;;;5109988;28;20571;-67
2022/08/05 00:28:45;;;;;;;5.53;1.50;;;18.10;79.10;;;;;;5110916;28;20066;-67
2022/08/05 00:31:14;;;;;;;3.30;1.77;;;18.10;79.20;;;;;;5107167;28;20063;-68
2022/08/05 00:33:41;;;;;;;4.72;1.20;;;18.00;79.30;;;;;;5110719;28;20059;-68
2022/08/05 00:36:28;;;;;;;4.80;1.17;;;18.10;79.50;;;;;;5109280;28;20097;-68
2022/08/05 00:39:15;;;;;;;6.40;1.55;;;18.00;79.70;;;;;;5113683;28;20494;-67
2022/08/05 00:41:46;;;;;;;6.28;1.65;;;18.00;79.80;;;;;;5112316;28;20104;-67
2022/08/05 00:44:20;;;;;;;5.55;1.63;;;18.00;79.50;;;;;;5114134;28;20043;-67
2022/08/05 00:46:49;;;;;;;3.20;1.30;;;17.90;79.30;;;;;;5113208;28;20044;-67
2022/08/05 00:49:27;;;;;;;5.82;1.45;;;17.80;79.30;;;;;;5113342;28;20097;-67
2022/08/05 00:52:04;;;;;;;5.65;1.30;;;17.80;79.50;;;;;;5113281;28;20483;-67
2022/08/05 00:54:31;;;;;;;3.75;1.30;;;17.80;79.60;;;;;;5113164;28;20073;-67
2022/08/05 00:56:58;;;;;;;5.00;1.13;;;17.80;79.70;;;;;;5112170;27;20051;-67
2022/08/05 00:59:25;;;;;;;2.50;1.42;;;17.80;79.80;;;;;;5111807;28;20043;-68
2022/08/05 01:02:00;;;;;;;5.75;1.42;;;17.70;79.60;;;;;;5100040;28;20428;-67
2022/08/05 01:04:27;;;;;;;3.60;1.00;;;17.70;79.50;;;;;;5093966;28;20044;-67
2022/08/05 01:06:55;;;;;;;6.03;1.50;;;17.70;79.30;;;;;;5092922;28;20518;-67
2022/08/05 01:09:24;;;;;;;2.10;0.95;;;17.70;79.30;;;;;;5125096;27;20100;-67
2022/08/05 01:11:58;;;;;;;5.43;1.17;;;17.70;79.60;;;;;;5113044;28;20079;-67
2022/08/05 01:14:47;;;;;;;2.92;1.08;;;17.70;79.80;;;;;;5112672;28;20131;-67
2022/08/05 01:17:28;;;;;;;2.75;1.08;;;17.70;79.50;;;;;;5084394;28;20051;-68
2022/08/05 01:20:14;;;;;;;5.90;1.55;;;17.60;79.60;;;;;;5093585;28;20048;-67
2022/08/05 01:23:15;;;;;;;2.88;1.13;;;17.60;79.40;;;;;;5102145;28;20483;-67
2022/08/05 01:26:21;;;;;;;3.90;0.98;;;17.50;79.60;;;;;;5094415;28;20071;-67
2022/08/05 01:29:03;;;;;;;2.50;1.73;;;17.50;79.70;;;;;;5113836;28;20048;-67
2022/08/05 01:31:41;;;;;;;3.88;0.90;;;17.50;79.60;;;;;;5107856;28;20153;-67
2022/08/05 01:34:31;;;;;;;4.45;1.50;;;17.40;79.50;;;;;;5112376;28;20128;-68
2022/08/05 01:37:42;;;;;;;2.95;1.10;;;17.30;79.70;;;;;;5092341;28;20072;-68
2022/08/05 01:40:11;;;;;;;5.63;1.80;;;17.30;79.90;;;;;;5056090;28;20131;-68
2022/08/05 01:42:39;;;;;;;7.25;1.42;;;17.30;80.20;;;;;;5083907;28;20062;-68
2022/08/05 01:45:07;;;;;;;5.22;1.45;;;17.20;80.30;;;;;;5109740;28;20419;-67
2022/08/05 01:47:34;;;;;;;3.22;1.05;;;17.20;80.60;;;;;;5093864;28;20380;-68
2022/08/05 01:50:11;;;;;;;5.82;1.08;;;17.20;80.80;;;;;;5097412;28;20043;-67
2022/08/05 01:52:41;;;;;;;3.33;1.20;;;17.20;81.10;;;;;;5092745;28;20047;-68
2022/08/05 01:55:10;;;;;;;1.90;0.95;;;17.20;81.40;;;;;;5111924;28;20058;-67
2022/08/05 01:57:39;;;;;;;4.30;1.30;;;17.10;82.20;;;;;;5111098;28;20048;-68
2022/08/05 02:00:26;;;;;;;3.42;1.13;;;17.00;82.80;;;;;;5098246;28;20044;-67
2022/08/05 02:03:02;;;;;;;4.65;1.50;;;17.00;83.40;;;;;;5111052;27;20041;-67
2022/08/05 02:05:31;;;;;;;3.45;1.38;;;17.00;84.10;;;;;;5108444;28;20058;-67
2022/08/05 02:08:01;;;;;;;3.15;1.02;;;16.90;84.40;;;;;;5094101;28;20051;-67
2022/08/05 02:10:40;;;;;;;10.52;1.77;;;16.90;84.60;;;;;;5111859;27;20067;-67
2022/08/05 02:13:19;;;;;;;3.53;1.08;;;16.90;85.40;;;;;;5091098;28;20043;-67
2022/08/05 02:15:50;;;;;;;4.97;1.17;;;16.80;85.80;;;;;;5095087;28;20051;-67
2022/08/05 02:18:16;;;;;;;;;;;16.80;85.90;;;;;;5110743;28;20487;-67
2022/08/05 02:21:08;;;;;;;4.40;1.17;;;16.80;86.60;;;;;;5099225;28;19923;-67
2022/08/05 02:23:42;;;;;;;7.60;1.48;;;16.70;87.70;;;;;;5094043;28;20414;-67
2022/08/05 02:26:12;;;;;;;3.80;1.17;;;16.70;87.40;;;;;;5111293;28;20122;-67
2022/08/05 02:28:43;;;;;;;4.22;1.38;;;16.70;87.70;;;;;;5109411;28;20116;-67
2022/08/05 02:31:15;;;;;;;3.05;1.10;;;16.60;88.30;;;;;;5095749;28;20131;-67
2022/08/05 02:33:55;;;;;;;5.38;1.20;;;16.70;88.90;;;;;;5091841;28;20044;-67
2022/08/05 02:36:24;;;;;;;3.20;1.25;;;16.70;89.00;;;;;;5110289;28;20044;-67
2022/08/05 02:38:56;;;;;;;2.80;1.20;;;16.70;89.20;;;;;;5109928;28;20039;-67
2022/08/05 02:41:24;;;;;;;3.60;1.27;;;16.70;89.60;;;;;;5112356;28;20051;-67
2022/08/05 02:44:05;;;;;;;5.40;1.50;;;16.70;89.60;;;;;;5110789;28;20062;-67
2022/08/05 02:46:40;;;;;;;4.03;1.40;;;16.70;90.10;;;;;;5107645;28;20043;-67
2022/08/05 02:49:36;;;;;;;2.88;1.30;;;16.70;90.30;;;;;;5097198;28;20487;-67
2022/08/05 02:52:08;;;;;;;4.05;1.20;;;16.60;90.20;;;;;;5095465;28;20391;-67
2022/08/05 02:54:38;;;;;;;3.30;1.05;;;16.60;90.40;;;;;;5093730;28;20406;-67
2022/08/05 02:57:10;;;;;;;3.75;1.65;;;16.50;90.40;;;;;;5090790;28;20131;-67
2022/08/05 02:59:57;;;;;;;5.28;1.10;;;16.60;90.70;;;;;;5105972;28;20054;-67
2022/08/05 03:02:36;;;;;;;5.97;1.00;;;16.60;90.70;;;;;;5109819;28;20522;-67
2022/08/05 03:05:04;;;;;;;3.85;1.33;;;16.60;91.00;;;;;;5111170;28;20482;-67
2022/08/05 03:07:30;;;;;;;3.28;1.27;;;16.70;90.90;;;;;;5093013;28;20078;-67
2022/08/05 03:10:17;;;;;;;3.00;1.30;;;16.60;91.20;;;;;;5111202;28;20048;-67
2022/08/05 03:12:51;;;;;;;2.85;1.13;;;16.60;91.00;;;;;;5094940;28;20416;-67
2022/08/05 03:15:18;;;;;;;4.38;1.40;;;16.50;91.10;;;;;;5089741;28;20101;-67
2022/08/05 03:17:45;;;;;;;1.70;1.30;;;16.50;91.30;;;;;;5107326;28;20047;-67
2022/08/05 03:20:12;;;;;;;3.35;1.10;;;16.50;91.40;;;;;;5109049;28;20048;-67
2022/08/05 03:22:39;;;;;;;3.75;0.88;;;16.40;91.50;;;;;;5112041;28;20043;-67
2022/08/05 03:25:12;;;;;;;2.63;1.13;;;16.40;91.60;;;;;;5110389;28;20105;-67
2022/08/05 03:27:59;;;;;;;2.58;0.93;;;16.30;91.60;;;;;;5111615;28;20093;-67
2022/08/05 03:30:27;;;;;;;1.52;1.10;;;16.40;91.80;;;;;;5109498;28;20046;-67
2022/08/05 03:33:21;;;;;;;5.90;1.70;;;16.30;91.90;;;;;;5066784;28;20047;-68
2022/08/05 03:35:57;;;;;;;4.57;1.50;;;16.30;92.00;;;;;;5110942;28;20094;-67
2022/08/05 03:38:25;;;;;;;3.25;1.58;;;16.20;92.20;;;;;;5110317;28;20044;-67
2022/08/05 03:41:03;;;;;;;4.10;1.33;;;16.20;92.30;;;;;;5110909;28;20035;-67
2022/08/05 03:43:36;;;;;;;1.85;1.00;;;16.20;92.40;;;;;;5100763;28;20094;-67
2022/08/05 03:46:23;;;;;;;3.17;1.17;;;16.10;92.60;;;;;;5103240;28;20048;-67
2022/08/05 03:48:56;;;;;;;6.22;1.35;;;16.10;92.90;;;;;;5109145;28;20058;-67
2022/08/05 03:51:28;;;;;;;6.22;2.00;;;16.00;93.10;;;;;;5110150;28;20528;-67
2022/08/05 03:54:39;;;;;;;7.20;1.20;;;16.00;93.30;;;;;;5081889;28;20040;-67
2022/08/05 03:57:28;;;;;;;4.35;1.65;;;16.00;93.60;;;;;;5090969;28;20052;-67
2022/08/05 04:00:10;;;;;;;4.85;1.38;;;15.90;93.60;;;;;;5098493;28;20048;-67
2022/08/05 04:02:37;;;;;;;1.43;0.83;;;15.90;93.80;;;;;;5086621;28;20044;-67
2022/08/05 04:05:24;;;;;;;3.75;1.38;;;16.00;93.70;;;;;;5093390;28;20043;-67
2022/08/05 04:07:53;;;;;;;3.42;1.30;;;15.90;93.90;;;;;;5093870;28;20491;-67
2022/08/05 04:10:26;;;;;;;3.03;1.33;;;15.90;93.90;;;;;;5109063;28;20127;-67
2022/08/05 04:12:57;;;;;;;3.17;1.20;;;15.80;94.00;;;;;;5111769;28;20426;-67
2022/08/05 04:15:26;;;;;;;3.00;1.25;;;15.80;93.90;;;;;;5109245;28;20571;-67
2022/08/05 04:18:03;;;;;;;3.72;1.30;;;15.80;94.20;;;;;;5114684;28;20414;-67
2022/08/05 04:20:33;;;;;;;3.35;1.20;;;15.80;94.40;;;;;;5097680;28;20044;-67
2022/08/05 04:23:00;;;;;;;3.28;1.50;;;15.80;94.50;;;;;;5114251;28;20467;-67
2022/08/05 04:25:27;;;;;;;5.50;1.27;;;15.70;94.80;;;;;;5112744;28;20218;-66
2022/08/05 04:28:14;;;;;;;3.53;1.23;;;15.70;94.90;;;;;;5106143;28;20096;-67
2022/08/05 04:30:43;;;;;;;2.17;1.58;;;15.70;95.00;;;;;;5080437;28;20153;-67
2022/08/05 04:33:10;;;;;;;2.92;1.50;;;15.70;95.20;;;;;;5091898;28;20052;-67
2022/08/05 04:35:37;;;;;;;3.13;1.40;;;15.70;95.50;;;;;;5107373;28;20163;-67
2022/08/05 04:38:24;;;;;;;4.03;1.25;;;15.60;95.80;;;;;;5113175;28;20051;-67
2022/08/05 04:41:05;;;;;;;5.22;1.60;;;15.60;96.10;;;;;;5112860;28;20532;-67
2022/08/05 04:43:35;;;;;;;6.30;2.42;;;15.50;96.50;;;;;;5113601;28;20135;-67
2022/08/05 04:46:03;;;;;;;4.43;1.30;;;15.50;96.70;;;;;;5095885;28;20088;-67
2022/08/05 04:48:30;;;;;;;3.65;1.20;;;15.50;96.70;;;;;;5111699;28;20130;-67
2022/08/05 04:50:57;;;;;;;3.78;1.77;;;15.40;96.90;;;;;;5112622;28;20039;-66
2022/08/05 04:53:35;;;;;;;6.60;1.42;;;15.40;97.20;;;;;;5111927;28;20047;-67
2022/08/05 04:56:06;;;;;;;3.03;1.17;;;15.40;97.40;;;;;;5113008;28;20502;-66
2022/08/05 04:58:53;;;;;;;3.72;1.40;;;15.40;97.60;;;;;;5112996;28;20039;-67
2022/08/05 05:01:20;;;;;;;4.70;1.50;;;15.40;97.90;;;;;;5092965;28;20075;-67
2022/08/05 05:04:07;;;;;;;8.57;1.60;;;15.40;98.30;;;;;;5109357;28;20048;-67
2022/08/05 05:06:35;;;;;;;4.95;1.58;;;15.40;98.20;;;;;;5113075;28;20050;-66
2022/08/05 05:09:10;;;;;;;5.45;1.50;;;15.40;98.40;;;;;;5109703;28;20040;-66
2022/08/05 05:11:43;;;;;;;8.50;1.52;;;15.40;98.50;;;;;;5093360;28;20048;-67
2022/08/05 05:14:22;;;;;;;3.35;1.58;;;15.40;98.40;;;;;;5084476;28;20044;-67
2022/08/05 05:17:00;;;;;;;9.55;1.80;;;15.40;98.60;;;;;;5093924;28;20044;-67
2022/08/05 05:19:29;;;;;;;5.97;1.67;;;15.50;98.40;;;;;;5090483;28;20036;-67
2022/08/05 05:22:10;;;;;;;4.43;1.38;;;15.50;98.10;;;;;;5113997;28;20086;-67
2022/08/05 05:24:53;;;;;;;4.72;1.40;;;15.50;98.10;;;;;;5110407;28;20115;-66
2022/08/05 05:27:28;;;;;;;4.70;2.10;;;15.60;98.10;;;;;;5112364;28;20043;-67
2022/08/05 05:30:14;;;;;;;3.65;1.48;;;16.10;97.40;;;;;;5109936;28;20052;-66
2022/08/05 05:32:55;;;;;;;4.55;1.23;;;16.60;96.30;;;;;;5105897;28;20048;-67
2022/08/05 05:35:30;;;;;;;5.50;1.60;;;17.10;95.20;;;;;;5112594;28;20882;-67
2022/08/05 05:38:05;;;;;;;3.05;1.20;;;17.60;94.10;;;;;;5114830;28;20047;-67
2022/08/05 05:40:37;;;;;;;4.68;1.27;;;17.80;93.30;;;;;;5112540;28;20055;-67
2022/08/05 05:43:09;;;;;;;5.18;1.70;;;17.80;92.00;;;;;;5108896;28;20430;-67
2022/08/05 05:45:36;;;;;;;5.85;1.58;;;17.50;92.00;;;;;;5113466;28;20044;-67
2022/08/05 05:48:13;;;;;;;1.77;1.10;;;17.30;92.40;;;;;;5113971;28;20580;-67
2022/08/05 05:50:41;;;;;;;5.55;1.52;;;17.30;92.80;;;;;;5115035;28;20155;-67
2022/08/05 05:53:12;;;;;;;5.53;1.23;;;17.40;92.50;;;;;;5111806;28;20051;-67
2022/08/05 05:55:48;;;;;;;7.28;2.05;;;17.50;92.10;;;;;;5110886;28;20083;-67
2022/08/05 05:58:27;;;;;;;4.00;1.45;;;17.40;92.00;;;;;;5092419;28;20087;-67
2022/08/05 06:01:01;;;;;;;4.78;1.20;;;17.30;92.00;;;;;;5096388;28;20134;-67
2022/08/05 06:03:41;;;;;;;4.35;1.38;;;17.10;92.20;;;;;;5111594;28;20431;-67
2022/08/05 06:06:27;;;;;;;4.20;1.40;;;17.10;92.50;;;;;;5110171;28;20058;-66
2022/08/05 06:08:58;;;;;;;5.78;1.58;;;17.00;92.70;;;;;;5111890;28;20082;-65
2022/08/05 06:11:25;;;;;;;8.73;6.35;;;17.00;92.90;;;;;;5110046;27;20467;-66
2022/08/05 06:13:55;;;;;;;14.80;11.27;;;16.90;93.20;;;;;;5111574;28;20055;-67
2022/08/05 06:16:22;;;;;;;6.18;1.75;;;17.00;93.40;;;;;;5111753;28;20050;-66
2022/08/05 06:18:58;;;;;;;5.15;1.67;;;16.90;93.10;;;;;;5097006;28;20093;-65
2022/08/05 06:21:31;;;;;;;5.07;1.63;;;17.00;93.20;;;;;;5105097;28;20187;-66
2022/08/05 06:24:07;;;;;;;3.03;1.50;;;17.00;93.40;;;;;;5097444;28;20044;-66
2022/08/05 06:26:39;;;;;;;5.10;1.25;;;17.00;93.30;;;;;;5074097;28;20044;-64
2022/08/05 06:29:21;;;;;;;5.38;1.98;;;17.00;93.30;;;;;;5104833;28;20130;-63
2022/08/05 06:32:08;;;;;;;5.68;3.78;;;17.20;93.20;;;;;;5098984;28;20051;-68
2022/08/05 06:34:54;;;;;;;4.70;1.33;;;17.30;92.50;;;;;;5090195;28;20438;-68
2022/08/05 06:37:24;;;;;;;5.97;1.30;;;17.20;92.00;;;;;;5092024;28;20044;-68
2022/08/05 06:40:11;;;;;;;4.60;1.60;;;17.00;92.00;;;;;;5108684;28;20060;-68
2022/08/05 06:42:39;;;;;;;5.97;1.30;;;16.90;92.60;;;;;;5090743;28;20113;-61
2022/08/05 06:45:07;;;;;;;4.45;1.50;;;16.90;92.80;;;;;;5109947;28;20246;-67
2022/08/05 06:47:35;;;;;;;4.20;1.15;;;17.00;92.30;;;;;;5111064;28;20059;-66
2022/08/05 06:50:25;;;;;;;4.00;1.40;;;17.00;92.50;;;;;;5097119;28;20096;-68
2022/08/05 06:52:54;;;;;;;5.03;1.90;;;17.00;92.30;;;;;;5110918;28;20503;-68
2022/08/05 06:55:37;;;;;;;6.22;1.95;;;17.00;92.40;;;;;;5111946;28;20142;-68
2022/08/05 06:58:08;;;;;;;8.02;1.20;;;17.00;92.50;;;;;;5113217;28;20055;-69
2022/08/05 07:00:58;;;;;;;4.45;2.08;;;17.00;92.50;;;;;;5112271;28;20116;-69
2022/08/05 07:03:26;;;;;;;3.15;1.40;;;16.90;92.50;;;;;;5074730;28;20054;-68
2022/08/05 07:05:58;;;;;;;6.53;1.42;;;17.00;92.30;;;;;;5076022;28;20075;-68
2022/08/05 07:08:26;;;;;;;3.03;1.20;;;17.00;92.20;;;;;;5094991;28;20050;-68
2022/08/05 07:10:54;;;;;;;;;;;17.00;92.00;;;;;;5095570;28;20544;-68
2022/08/05 07:19:34;;;;;;;7.00;1.23;;;17.10;91.00;;;;;;5095676;28;20051;-70
2022/08/05 07:22:21;;;;;;;6.10;1.45;;;17.00;90.70;;;;;;5089184;28;20051;-69
2022/08/05 07:24:59;;;;;;;6.85;1.95;;;17.00;91.00;;;;;;5108762;28;20039;-74
2022/08/05 07:27:46;;;;;;;5.47;1.40;;;17.10;90.90;;;;;;5107830;28;20039;-79
2022/08/05 07:30:32;;;;;;;8.77;1.75;;;17.20;90.50;;;;;;5103776;28;20055;-71
2022/08/05 07:33:05;;;;;;;4.15;1.20;;;17.20;90.10;;;;;;5079227;28;20144;-65
2022/08/05 07:35:39;;;;;;;8.18;3.85;;;17.20;88.30;;;;;;5079261;28;20112;-65
2022/08/05 07:38:26;;;;;;;6.60;2.38;;;17.10;89.20;;;;;;5094628;28;20043;-71
2022/08/05 07:41:05;;;;;;;6.22;2.05;;;17.20;90.00;;;;;;5077797;28;20524;-65
2022/08/05 07:43:52;;;;;;;8.18;2.13;;;17.10;89.70;;;;;;5076741;28;20062;-65
2022/08/05 07:46:22;;;;;;;7.20;1.88;;;17.20;90.30;;;;;;5108970;28;20048;-66
2022/08/05 07:48:52;;;;;;;6.88;2.00;;;17.30;90.30;;;;;;5096209;28;20052;-67
2022/08/05 07:51:35;;;;;;;5.35;1.63;;;17.40;90.30;;;;;;5098008;28;20039;-64
2022/08/05 07:54:20;;;;;;;2.10;1.00;;;17.40;89.70;;;;;;5110560;28;20426;-65
2022/08/05 07:56:52;;;;;;;5.18;1.83;;;17.50;89.20;;;;;;5111844;28;20047;-64
2022/08/05 07:59:39;;;;;;;4.38;1.63;;;17.40;89.60;;;;;;5103031;28;20047;-64
2022/08/05 08:02:08;;;;;;;5.10;1.40;;;17.40;90.20;;;;;;5112472;28;20044;-66
2022/08/05 08:04:46;;;;;;;5.65;1.73;;;17.50;90.10;;;;;;5095892;28;20411;-69
2022/08/05 08:07:14;;;;;;;7.95;2.17;;;17.40;88.00;;;;;;5111174;28;20054;-67
2022/08/05 08:09:43;;;;;;;4.22;1.40;;;17.40;88.80;;;;;;5097349;28;20383;-66
2022/08/05 08:12:13;;;;;;;10.05;1.67;;;17.30;89.30;;;;;;5096967;28;20060;-66
2022/08/05 08:15:01;;;;;;;6.15;2.25;;;17.30;90.00;;;;;;5116055;28;20048;-66
2022/08/05 08:17:30;;;;;;;;;;;17.40;90.10;;;;;;5099145;28;20065;-66
2022/08/05 08:19:57;;;;;;;2.22;1.15;;;17.40;90.20;;;;;;5098158;28;19926;-66
2022/08/05 08:22:52;;;;;;;5.15;1.60;;;17.40;89.50;;;;;;5101071;28;20043;-66
2022/08/05 08:25:21;;;;;;;6.65;1.90;;;17.40;90.00;;;;;;5115110;28;20051;-66
2022/08/05 08:28:08;;;;;;;4.53;1.65;;;17.50;90.30;;;;;;5115657;28;20048;-66
2022/08/05 08:30:44;;;;;;;5.68;1.42;;;17.50;90.20;;;;;;5114617;28;20047;-66
2022/08/05 08:33:15;;;;;;;2.60;1.23;;;17.60;90.30;;;;;;5098191;28;20055;-66
2022/08/05 08:35:45;;;;;;;4.00;1.45;;;17.60;89.50;;;;;;5114842;28;20158;-66
2022/08/05 08:38:23;;;;;;;3.35;1.20;;;17.60;89.60;;;;;;5099617;28;20051;-66
2022/08/05 08:41:04;;;;;;;4.37;1.30;;;17.60;89.40;;;;;;5114727;28;20572;-66
2022/08/05 08:43:33;;;;;;;4.88;1.52;;;17.70;89.90;;;;;;5114663;28;20361;-66
2022/08/05 08:46:20;;;;;;;4.00;1.52;;;17.80;90.10;;;;;;5114768;28;20075;-66
2022/08/05 08:48:47;;;;;;;3.90;1.77;;;17.80;88.90;;;;;;5097594;28;20125;-66
2022/08/05 08:51:34;;;;;;;5.10;1.52;;;17.80;87.80;;;;;;5087125;28;20051;-67
2022/08/05 08:54:21;;;;;;;3.63;1.02;;;17.80;87.00;;;;;;5100265;28;20507;-67
2022/08/05 08:56:53;;;;;;;7.53;1.90;;;17.80;88.10;;;;;;5114191;28;20080;-67
2022/08/05 08:59:24;;;;;;;3.55;1.55;;;17.80;87.50;;;;;;5112494;28;20462;-67
2022/08/05 09:02:00;;;;;;;4.68;1.33;;;17.80;87.40;;;;;;5113975;28;20058;-66
2022/08/05 09:04:27;;;;;;;4.93;1.42;;;17.90;87.20;;;;;;5096894;28;20479;-67
2022/08/05 09:06:56;;;;;;;5.95;1.50;;;17.90;87.40;;;;;;5114544;28;20044;-66
2022/08/05 09:09:25;;;;;;;6.15;1.80;;;17.90;88.00;;;;;;5097554;28;20382;-67
2022/08/05 09:12:04;;;;;;;;;;;17.90;87.50;;;;;;5099499;28;20044;-67
2022/08/05 09:14:46;;;;;;;3.10;1.60;;;17.90;86.70;;;;;;5114971;28;19975;-67
2022/08/05 09:17:24;;;;;;;4.90;1.73;;;17.90;87.50;;;;;;5114230;28;20116;-67
2022/08/05 09:20:11;;;;;;;6.97;1.60;;;18.00;87.40;;;;;;5099907;28;20090;-66
2022/08/05 09:23:05;;;;;;;5.78;1.35;;;18.10;87.20;;;;;;5092043;28;20051;-65
2022/08/05 09:25:35;;;;;;;4.18;1.10;;;18.10;85.10;;;;;;5113752;28;20502;-66
2022/08/05 09:28:23;;;;;;;3.85;1.50;;;18.20;85.20;;;;;;5114166;28;20059;-67
2022/08/05 09:31:12;;;;;;;6.97;1.67;;;18.20;85.30;;;;;;5098198;28;20150;-67
2022/08/05 09:34:06;;;;;;;2.05;1.10;;;18.20;86.30;;;;;;5113527;28;20052;-67
2022/08/05 09:36:43;;;;;;;5.47;1.27;;;18.40;84.50;;;;;;5113880;28;20450;-67
2022/08/05 09:39:23;;;;;;;5.00;1.70;;;18.30;83.80;;;;;;5099237;28;20047;-67
2022/08/05 09:42:10;;;;;;;4.97;1.27;;;18.30;84.10;;;;;;5099504;28;20463;-67
2022/08/05 09:44:49;;;;;;;;;;;18.40;83.60;;;;;;5093080;28;20048;-67
2022/08/05 09:47:18;;;;;;;3.53;1.20;;;18.40;82.70;;;;;;5107235;28;19969;-67
2022/08/05 09:49:54;;;;;;;4.65;1.40;;;18.40;83.10;;;;;;5092438;28;20106;-67
2022/08/05 09:52:29;;;;;;;5.03;1.35;;;18.50;81.70;;;;;;5111707;28;20054;-67
2022/08/05 09:54:59;;;;;;;3.78;1.17;;;18.50;80.90;;;;;;5113451;28;20054;-67
2022/08/05 09:57:46;;;;;;;5.05;1.48;;;18.50;80.00;;;;;;5112956;28;20092;-65
2022/08/05 10:00:23;;;;;;;5.13;1.58;;;18.50;79.30;;;;;;5113099;28;20514;-65
2022/08/05 10:02:53;;;;;;;5.88;1.38;;;18.50;79.40;;;;;;5097286;28;20065;-65
2022/08/05 10:05:28;;;;;;;5.57;2.22;;;18.60;80.60;;;;;;5110156;28;20043;-66
2022/08/05 10:08:00;;;;;;;3.47;1.20;;;18.60;79.30;;;;;;5113646;28;20056;-65
2022/08/05 10:10:47;;;;;;;2.50;1.50;;;18.60;79.80;;;;;;5112973;28;20048;-66
2022/08/05 10:13:26;;;;;;;4.05;1.70;;;18.80;78.90;;;;;;5081123;28;20083;-65
2022/08/05 10:16:32;;;;;;;2.72;1.02;;;19.00;78.10;;;;;;5112796;28;20479;-66
2022/08/05 10:19:03;;;;;;;5.03;1.20;;;19.00;75.70;;;;;;5097072;28;20395;-65
2022/08/05 10:21:35;;;;;;;3.88;0.90;;;19.00;76.60;;;;;;5096975;28;20118;-65
2022/08/05 10:24:12;;;;;;;3.45;1.38;;;19.10;75.30;;;;;;5111173;28;20164;-66
2022/08/05 10:26:41;;;;;;;3.63;1.63;;;19.10;74.60;;;;;;5096763;28;20148;-67
2022/08/05 10:29:16;;;;;;;2.35;0.98;;;19.10;74.70;;;;;;5113075;28;20054;-66
2022/08/05 10:32:04;;;;;;;4.65;1.10;;;19.20;73.60;;;;;;5098165;28;20423;-67
2022/08/05 10:34:51;;;;;;;3.70;1.13;;;19.20;70.90;;;;;;5112184;28;20051;-67
2022/08/05 10:37:17;;;;;;;3.58;0.90;;;19.20;71.40;;;;;;5112660;28;20051;-66
2022/08/05 10:39:46;;;;;;;3.47;1.30;;;19.30;71.00;;;;;;5112175;28;20131;-67
2022/08/05 10:42:35;;;;;;;1.95;0.93;;;19.30;71.70;;;;;;5098312;28;20047;-66
2022/08/05 10:45:04;;;;;;;4.20;1.30;;;19.40;70.70;;;;;;5112124;28;20051;-66
2022/08/05 10:47:49;;;;;;;4.68;1.00;;;19.40;71.40;;;;;;5077707;28;20083;-67
2022/08/05 10:51:14;;;;;;;6.72;2.17;;;19.40;72.40;;;;;;5095192;28;20055;-66
2022/08/05 10:53:55;;;;;;;2.28;1.17;;;19.60;71.20;;;;;;5112469;28;20055;-66
2022/08/05 10:56:27;;;;;;;5.47;1.73;;;19.60;71.50;;;;;;5095649;28;20046;-67
2022/08/05 10:58:58;;;;;;;7.13;1.40;;;19.60;72.00;;;;;;5112280;28;20440;-66
2022/08/05 11:01:43;;;;;;;3.85;0.98;;;19.60;71.70;;;;;;5112148;28;20051;-66
2022/08/05 11:04:29;;;;;;;4.97;1.20;;;19.60;71.80;;;;;;5097936;28;20040;-66
2022/08/05 11:06:59;;;;;;;4.68;2.05;;;19.60;71.80;;;;;;5095408;28;20048;-66
2022/08/05 11:09:35;;;;;;;5.70;1.92;;;19.70;71.80;;;;;;5109256;28;20043;-67
2022/08/05 11:12:35;;;;;;;4.60;1.42;;;19.70;71.80;;;;;;5108295;28;20559;-67
2022/08/05 11:15:06;;;;;;;6.43;1.75;;;19.90;71.00;;;;;;5111598;28;20075;-67
2022/08/05 11:17:52;;;;;;;29.45;24.27;;;20.00;71.20;;;;;;5108532;28;20065;-65
2022/08/05 11:20:46;;;;;;;8.80;5.55;;;20.20;71.60;;;;;;5109890;28;20035;-67
2022/08/05 11:23:34;;;;;;;4.50;1.95;;;20.40;72.00;;;;;;5098267;28;20452;-71
2022/08/05 11:26:22;;;;;;;5.28;1.80;;;20.50;72.30;;;;;;5107364;28;20039;-70
2022/08/05 11:28:58;;;;;;;5.13;1.88;;;20.60;70.50;;;;;;5091829;28;20047;-71
2022/08/05 11:31:38;;;;;;;4.72;1.33;;;20.70;70.70;;;;;;5096030;28;20127;-71
2022/08/05 11:34:43;;;;;;;3.67;1.30;;;20.80;69.80;;;;;;5094668;28;20100;-69
2022/08/05 11:37:38;;;;;;;4.82;1.60;;;20.70;68.60;;;;;;5095408;28;20092;-65
2022/08/05 11:40:57;;;;;;;4.10;1.30;;;20.60;68.80;;;;;;5112264;28;20051;-65
2022/08/05 11:43:59;;;;;;;2.53;0.98;;;20.50;68.40;;;;;;5112160;28;20056;-65
2022/08/05 11:46:34;;;;;;;6.28;2.50;;;20.60;68.90;;;;;;5112180;28;20135;-64
2022/08/05 11:49:02;;;;;;;8.23;3.35;;;20.70;69.20;;;;;;5112346;28;20051;-60
2022/08/05 11:51:29;;;;;;;4.72;1.58;;;20.70;68.80;;;;;;5094259;28;20487;-64
2022/08/05 11:54:10;;;;;;;5.07;1.60;;;20.90;67.60;;;;;;5111645;28;20406;-65
2022/08/05 11:56:49;;;;;;;6.10;1.75;;;21.10;67.10;;;;;;5095013;28;20050;-65
2022/08/05 11:59:19;;;;;;;4.25;1.50;;;21.10;65.30;;;;;;5111047;28;20048;-73
2022/08/05 12:02:00;;;;;;;2.95;1.42;;;21.00;66.60;;;;;;5112342;28;20055;-75
2022/08/05 12:04:28;;;;;;;3.97;1.23;;;21.00;65.60;;;;;;5111055;28;20048;-73
2022/08/05 12:06:58;;;;;;;2.22;1.05;;;21.00;65.60;;;;;;5109693;28;20044;-73
2022/08/05 12:09:30;;;;;;;2.72;1.15;;;21.00;65.20;;;;;;5091644;28;20117;-73
2022/08/05 12:12:24;;;;;;;2.85;1.40;;;21.00;65.40;;;;;;5094650;28;20075;-74
2022/08/05 12:14:51;;;;;;;4.47;1.33;;;21.00;64.70;;;;;;5081213;28;20048;-66
2022/08/05 12:17:22;;;;;;;2.50;1.27;;;21.20;64.90;;;;;;5058138;28;20048;-65
2022/08/05 12:20:09;;;;;;;3.10;1.50;;;21.20;65.40;;;;;;5092002;28;20055;-66
2022/08/05 12:23:08;;;;;;;4.15;1.20;;;21.40;66.10;;;;;;5098222;28;20036;-66
2022/08/05 12:25:52;;;;;;;2.22;1.13;;;21.80;65.10;;;;;;5111213;28;20047;-66
2022/08/05 12:28:32;;;;;;;4.10;1.80;;;22.20;67.00;;;;;;5111295;28;20051;-67
2022/08/05 12:30:59;;;;;;;13.68;9.25;;;22.50;64.60;;;;;;5090633;28;20426;-67
2022/08/05 12:33:28;;;;;;;17.42;13.38;;;22.40;63.50;;;;;;5094683;28;20043;-64
2022/08/05 12:36:03;;;;;;;6.03;2.92;;;22.30;63.10;;;;;;5083516;28;20055;-65
2022/08/05 12:38:38;;;;;;;8.05;1.92;;;22.20;63.00;;;;;;5115694;28;20351;-66
2022/08/05 12:41:13;;;;;;;3.22;1.20;;;22.40;63.00;;;;;;5114837;28;20071;-66
2022/08/05 12:43:49;;;;;;;2.58;1.00;;;22.60;62.30;;;;;;5113950;28;20499;-67
2022/08/05 12:46:25;;;;;;;13.20;2.50;;;22.80;61.70;;;;;;5115780;28;20055;-67
2022/08/05 12:49:06;;;;;;;2.22;1.02;;;23.00;62.20;;;;;;5080168;28;20044;-66
2022/08/05 12:51:52;;;;;;;3.72;1.58;;;23.20;60.40;;;;;;5102533;28;20048;-66
2022/08/05 12:54:39;;;;;;;4.60;1.05;;;23.40;60.70;;;;;;5107903;28;20482;-66
2022/08/05 12:57:06;;;;;;;3.00;1.30;;;23.50;60.40;;;;;;5112223;28;20040;-67
2022/08/05 12:59:49;;;;;;;9.00;2.40;;;23.60;60.00;;;;;;5113818;28;20048;-65
2022/08/05 13:02:36;;;;;;;3.42;1.17;;;23.60;58.80;;;;;;5109465;28;20093;-67
2022/08/05 13:05:06;;;;;;;4.03;1.20;;;23.60;59.70;;;;;;5107086;28;20047;-68
2022/08/05 13:07:38;;;;;;;2.58;1.00;;;23.70;59.30;;;;;;5077109;28;20072;-67
2022/08/05 13:10:25;;;;;;;3.97;2.78;;;23.50;57.70;;;;;;5111747;28;20051;-67
2022/08/05 13:12:54;;;;;;;16.88;2.92;;;23.30;57.60;;;;;;5113977;28;20044;-68
2022/08/05 13:15:33;;;;;;;4.68;1.73;;;23.30;61.30;;;;;;5094751;28;20040;-70
2022/08/05 13:18:19;;;;;;;3.35;1.20;;;23.50;58.00;;;;;;5093623;28;20052;-69
2022/08/05 13:20:47;;;;;;;3.83;1.13;;;23.70;59.10;;;;;;5097880;28;20048;-70
2022/08/05 13:23:15;;;;;;;;;;;23.80;57.70;;;;;;5096584;28;20063;-69
2022/08/05 13:25:49;;;;;;;1.88;0.73;;;23.80;57.40;;;;;;5110812;28;19924;-68
2022/08/05 13:28:24;;;;;;;4.60;1.17;;;23.70;57.20;;;;;;5088610;28;20077;-70
2022/08/05 13:30:51;;;;;;;2.13;0.93;;;23.50;57.70;;;;;;5114462;28;20039;-69
2022/08/05 13:33:20;;;;;;;1.88;0.90;;;23.40;58.40;;;;;;5112768;28;20047;-67
2022/08/05 13:36:07;;;;;;;3.93;1.33;;;23.20;57.70;;;;;;5094571;28;20051;-69
2022/08/05 13:38:35;;;;;;;4.63;1.00;;;23.10;57.90;;;;;;5113234;28;20050;-68
2022/08/05 13:41:08;;;;;;;4.53;1.70;;;23.10;57.90;;;;;;5113328;28;20039;-68
2022/08/05 13:43:35;;;;;;;2.60;1.05;;;23.10;58.70;;;;;;5110025;28;20052;-68